createdAt,value
2023-02-23T00:01:42.027Z,8.93
2023-02-23T00:04:10.335Z,13.67
2023-02-23T00:06:39.019Z,10.93
2023-02-23T00:09:15.513Z,11.40
2023-02-23T00:11:43.321Z,13.83
2023-02-23T00:14:11.123Z,14.03
2023-02-23T00:16:38.896Z,12.27
2023-02-23T00:19:08.305Z,13.57
2023-02-23T00:21:36.219Z,13.20
2023-02-23T00:24:09.949Z,11.87
2023-02-23T00:26:43.125Z,9.80
2023-02-23T00:29:17.157Z,9.03
2023-02-23T00:31:45.345Z,9.63
2023-02-23T00:34:15.966Z,9.10
2023-02-23T00:36:44.482Z,16.67
2023-02-23T00:39:21.626Z,10.60
2023-02-23T00:41:50.425Z,14.73
2023-02-23T00:44:18.263Z,12.90
2023-02-23T00:46:49.412Z,16.00
2023-02-23T00:49:17.488Z,18.03
2023-02-23T00:51:45.516Z,17.43
2023-02-23T00:54:15.571Z,18.67
2023-02-23T00:56:43.606Z,19.23
2023-02-23T00:59:12.058Z,16.87
2023-02-23T01:01:41.831Z,17.67
2023-02-23T01:04:11.139Z,17.57
2023-02-23T01:06:41.303Z,15.83
2023-02-23T01:09:10.408Z,16.63
2023-02-23T01:11:41.329Z,14.73
2023-02-23T01:14:11.812Z,18.03
2023-02-23T01:16:39.863Z,15.33
2023-02-23T01:19:08.827Z,16.97
2023-02-23T01:21:39.444Z,14.97
2023-02-23T01:24:07.847Z,18.10
2023-02-23T01:26:39.717Z,17.73
2023-02-23T01:29:10.356Z,17.90
2023-02-23T01:31:39.727Z,18.67
2023-02-23T01:34:08.344Z,16.30
2023-02-23T01:36:38.898Z,18.20
2023-02-23T01:39:08.786Z,16.37
2023-02-23T01:41:37.890Z,21.70
2023-02-23T01:44:09.289Z,19.60
2023-02-23T01:46:39.781Z,28.13
2023-02-23T01:49:11.155Z,19.53
2023-02-23T01:51:43.868Z,26.27
2023-02-23T01:54:17.605Z,25.57
2023-02-23T01:56:49.226Z,27.13
2023-02-23T01:59:19.201Z,25.73
2023-02-23T02:01:48.200Z,27.50
2023-02-23T02:04:19.475Z,25.57
2023-02-23T02:06:53.575Z,22.50
2023-02-23T02:09:25.671Z,21.23
2023-02-23T02:11:54.434Z,20.33
2023-02-23T02:14:28.441Z,21.23
2023-02-23T02:17:16.302Z,17.10
2023-02-23T02:20:14.879Z,16.97
2023-02-23T02:23:08.379Z,22.70
2023-02-23T02:25:50.661Z,21.20
2023-02-23T02:29:03.559Z,25.40
2023-02-23T02:32:11.117Z,25.53
2023-02-23T02:35:11.657Z,18.37
2023-02-23T02:38:03.931Z,23.67
2023-02-23T02:40:53.160Z,23.43
2023-02-23T02:43:27.704Z,18.73
2023-02-23T02:46:02.636Z,24.80
2023-02-23T02:48:41.800Z,26.97
2023-02-23T02:51:20.329Z,26.93
2023-02-23T02:53:58.138Z,22.63
2023-02-23T02:56:28.205Z,24.27
2023-02-23T02:58:56.754Z,19.63
2023-02-23T03:01:41.947Z,25.87
2023-02-23T03:04:42.216Z,25.73
2023-02-23T03:07:38.786Z,23.00
2023-02-23T03:10:36.834Z,23.30
2023-02-23T03:13:36.056Z,27.50
2023-02-23T03:16:34.241Z,23.00
2023-02-23T03:19:30.121Z,25.77
2023-02-23T03:22:24.930Z,25.97
2023-02-23T03:25:15.481Z,30.27
2023-02-23T03:28:07.435Z,23.30
2023-02-23T03:31:02.161Z,23.50
2023-02-23T03:33:55.637Z,21.77
2023-02-23T03:36:44.453Z,16.93
2023-02-23T03:39:38.584Z,18.17
2023-02-23T03:42:29.383Z,25.43
2023-02-23T03:45:20.444Z,17.07
2023-02-23T03:48:08.743Z,21.83
2023-02-23T03:50:59.038Z,20.27
2023-02-23T03:53:52.346Z,21.03
2023-02-23T03:56:42.999Z,24.20
2023-02-23T03:59:33.333Z,21.53
2023-02-23T04:02:21.290Z,24.97
2023-02-23T04:05:07.798Z,22.10
2023-02-23T04:07:53.731Z,23.70
2023-02-23T04:10:40.053Z,17.67
2023-02-23T04:13:17.344Z,19.53
2023-02-23T04:15:53.521Z,25.30
2023-02-23T04:18:27.182Z,24.97
2023-02-23T04:20:55.574Z,21.90
2023-02-23T04:23:24.089Z,20.80
2023-02-23T04:25:52.663Z,19.20
2023-02-23T04:28:20.817Z,16.87
2023-02-23T04:30:48.781Z,20.77
2023-02-23T04:33:16.955Z,23.57
2023-02-23T04:35:46.154Z,26.33
2023-02-23T04:38:13.898Z,20.13
2023-02-23T04:40:41.743Z,18.83
2023-02-23T04:43:11.487Z,24.47
2023-02-23T04:45:39.348Z,21.07
2023-02-23T04:48:07.797Z,19.33
2023-02-23T04:50:35.987Z,21.83
2023-02-23T04:53:05.576Z,15.00
2023-02-23T04:55:33.760Z,22.30
2023-02-23T04:58:04.137Z,19.27
2023-02-23T05:00:33.455Z,15.77
2023-02-23T05:03:01.199Z,20.93
2023-02-23T05:05:29.056Z,18.83
2023-02-23T05:07:56.838Z,19.33
2023-02-23T05:10:25.995Z,14.20
2023-02-23T05:12:53.789Z,20.43
2023-02-23T05:15:21.571Z,16.77
2023-02-23T05:17:51.407Z,16.37
2023-02-23T05:20:19.248Z,16.30
2023-02-23T05:22:47.063Z,19.17
2023-02-23T05:25:15.220Z,19.10
2023-02-23T05:27:44.368Z,20.87
2023-02-23T05:30:15.524Z,14.37
2023-02-23T05:32:43.373Z,17.87
2023-02-23T05:35:12.392Z,23.57
2023-02-23T05:37:40.136Z,18.73
2023-02-23T05:40:09.508Z,21.13
2023-02-23T05:42:39.439Z,20.53
2023-02-23T05:45:10.915Z,17.90
2023-02-23T05:47:39.076Z,16.00
2023-02-23T05:50:08.019Z,19.73
2023-02-23T05:52:41.611Z,18.47
2023-02-23T05:55:11.567Z,16.63
2023-02-23T05:57:39.628Z,16.97
2023-02-23T06:00:12.100Z,21.63
2023-02-23T06:02:41.725Z,21.40
2023-02-23T06:05:09.991Z,23.33
2023-02-23T06:07:37.787Z,22.37
2023-02-23T06:10:06.850Z,19.47
2023-02-23T06:12:34.720Z,24.20
2023-02-23T06:15:02.515Z,24.53
2023-02-23T06:17:32.153Z,22.00
2023-02-23T06:20:01.935Z,20.97
2023-02-23T06:22:29.721Z,19.43
2023-02-23T06:24:57.613Z,20.30
2023-02-23T06:27:26.192Z,18.60
2023-02-23T06:29:54.135Z,19.83
2023-02-23T06:32:22.088Z,20.37
2023-02-23T06:34:53.039Z,24.60
2023-02-23T06:37:20.839Z,20.67
2023-02-23T06:39:50.984Z,23.63
2023-02-23T06:42:18.940Z,19.27
2023-02-23T06:44:46.766Z,16.33
2023-02-23T06:47:14.582Z,23.67
2023-02-23T06:49:42.613Z,19.97
2023-02-23T06:52:13.491Z,23.50
2023-02-23T06:54:41.794Z,20.20
2023-02-23T06:57:09.663Z,17.67
2023-02-23T06:59:37.839Z,17.57
2023-02-23T07:02:05.866Z,16.20
2023-02-23T07:04:34.450Z,22.67
2023-02-23T07:07:03.667Z,19.67
2023-02-23T07:09:32.815Z,20.87
2023-02-23T07:12:01.023Z,21.00
2023-02-23T07:14:31.072Z,18.40
2023-02-23T07:16:58.820Z,19.37
2023-02-23T07:19:26.812Z,21.23
2023-02-23T07:21:54.673Z,21.20
2023-02-23T07:24:24.472Z,22.43
2023-02-23T07:26:53.617Z,23.87
2023-02-23T07:29:22.726Z,26.37
2023-02-23T07:31:50.797Z,20.17
2023-02-23T07:34:18.755Z,16.83
2023-02-23T07:36:46.544Z,17.87
2023-02-23T07:39:14.519Z,20.60
2023-02-23T07:41:42.389Z,19.07
2023-02-23T07:44:20.369Z,25.63
2023-02-23T07:46:48.404Z,23.97
2023-02-23T07:49:16.490Z,17.10
2023-02-23T07:51:44.338Z,18.87
2023-02-23T07:54:12.132Z,17.73
2023-02-23T07:56:39.901Z,15.77
2023-02-23T07:59:07.683Z,14.17
2023-02-23T08:01:37.038Z,13.70
2023-02-23T08:04:05.538Z,18.57
2023-02-23T08:06:33.384Z,21.03
2023-02-23T08:09:02.013Z,25.30
2023-02-23T08:11:29.950Z,25.03
2023-02-23T08:14:00.073Z,20.70
2023-02-23T08:16:28.431Z,22.70
2023-02-23T08:19:01.068Z,19.80
2023-02-23T08:21:30.616Z,19.53
2023-02-23T08:23:58.925Z,22.13
2023-02-23T08:26:27.158Z,18.27
2023-02-23T08:28:54.915Z,18.67
2023-02-23T08:31:24.522Z,19.07
2023-02-23T08:33:53.778Z,22.03
2023-02-23T08:36:23.142Z,23.03
2023-02-23T08:38:53.696Z,26.43
2023-02-23T08:41:22.189Z,27.87
2023-02-23T08:43:52.074Z,20.33
2023-02-23T08:46:20.681Z,18.40
2023-02-23T08:48:48.831Z,21.13
2023-02-23T08:51:16.893Z,19.40
2023-02-23T08:53:48.602Z,15.20
2023-02-23T08:56:16.760Z,24.17
2023-02-23T08:58:44.809Z,21.87
2023-02-23T09:01:19.075Z,22.33
2023-02-23T09:03:47.194Z,21.97
2023-02-23T09:06:17.360Z,24.97
2023-02-23T09:08:45.168Z,26.27
2023-02-23T09:11:14.243Z,26.93
2023-02-23T09:13:41.967Z,22.67
2023-02-23T09:16:09.990Z,24.33
2023-02-23T09:18:38.728Z,23.43
2023-02-23T09:21:08.723Z,19.53
2023-02-23T09:23:36.923Z,18.23
2023-02-23T09:26:05.321Z,23.33
2023-02-23T09:28:35.105Z,26.27
2023-02-23T09:31:07.021Z,25.50
2023-02-23T09:33:34.960Z,25.23
2023-02-23T09:36:07.080Z,28.27
2023-02-23T09:38:35.046Z,25.50
2023-02-23T09:41:02.855Z,24.07
2023-02-23T09:43:38.172Z,21.90
2023-02-23T09:46:29.242Z,21.33
2023-02-23T09:49:03.502Z,16.57
2023-02-23T09:51:34.835Z,22.63
2023-02-23T09:54:04.442Z,23.47
2023-02-23T09:56:35.922Z,17.40
2023-02-23T09:59:07.366Z,17.83
2023-02-23T10:01:57.869Z,20.33
2023-02-23T10:04:32.166Z,14.67
2023-02-23T10:07:05.331Z,14.27
2023-02-23T10:10:04.110Z,16.33
2023-02-23T10:12:43.180Z,22.07
2023-02-23T10:15:21.789Z,20.63
2023-02-23T10:18:03.369Z,17.60
2023-02-23T10:20:44.315Z,14.13
2023-02-23T10:23:17.854Z,17.30
2023-02-23T10:25:50.812Z,23.60
2023-02-23T10:28:22.343Z,17.70
2023-02-23T10:30:53.727Z,18.00
2023-02-23T10:33:25.702Z,16.93
2023-02-23T10:36:12.532Z,12.07
2023-02-23T10:38:41.279Z,15.70
2023-02-23T10:41:11.721Z,11.73
2023-02-23T10:43:40.671Z,13.07
2023-02-23T10:46:18.503Z,17.43
2023-02-23T10:48:48.501Z,13.90
2023-02-23T10:51:21.219Z,15.20
2023-02-23T10:53:49.312Z,15.37
2023-02-23T10:56:19.720Z,13.23
2023-02-23T10:58:49.378Z,14.30
2023-02-23T11:01:36.396Z,14.53
2023-02-23T11:04:17.262Z,14.23
2023-02-23T11:06:46.723Z,16.47
2023-02-23T11:09:41.867Z,11.20
2023-02-23T11:12:21.701Z,9.00
2023-02-23T11:14:51.064Z,8.67
2023-02-23T11:17:30.274Z,11.60
2023-02-23T11:20:07.588Z,10.90
2023-02-23T11:22:38.912Z,11.00
2023-02-23T11:25:18.376Z,10.43
2023-02-23T11:27:53.796Z,10.70
2023-02-23T11:30:24.510Z,13.07
2023-02-23T11:32:57.529Z,7.20
2023-02-23T11:35:32.083Z,7.77
2023-02-23T11:38:00.459Z,9.03
2023-02-23T11:40:30.192Z,9.10
2023-02-23T11:43:07.329Z,10.70
2023-02-23T11:45:41.466Z,10.53
2023-02-23T11:48:22.148Z,9.97
2023-02-23T11:50:51.122Z,9.97
2023-02-23T11:53:22.259Z,6.87
2023-02-23T11:55:52.966Z,8.63
2023-02-23T11:58:26.983Z,8.93
2023-02-23T12:00:59.729Z,8.00
2023-02-23T12:03:32.080Z,7.03
2023-02-23T12:06:02.483Z,9.35
2023-02-23T12:08:38.793Z,10.35
2023-02-23T12:11:15.662Z,9.77
2023-02-23T12:13:47.502Z,7.47
2023-02-23T12:16:19.950Z,8.23
2023-02-23T12:18:55.901Z,9.75
2023-02-23T12:21:33.265Z,9.07
2023-02-23T12:24:11.094Z,10.13
2023-02-23T12:26:46.510Z,7.40
2023-02-23T12:29:22.731Z,10.48
2023-02-23T12:31:57.866Z,7.85
2023-02-23T12:34:31.814Z,6.82
2023-02-23T12:37:07.452Z,4.85
2023-02-23T12:39:39.811Z,11.80
2023-02-23T12:42:14.555Z,9.45
2023-02-23T12:44:47.753Z,10.93
2023-02-23T12:47:25.679Z,18.52
2023-02-23T12:50:00.297Z,9.63
2023-02-23T12:52:32.955Z,7.97
2023-02-23T12:55:00.808Z,9.97
2023-02-23T12:57:38.598Z,8.00
2023-02-23T13:00:41.001Z,8.00
2023-02-23T13:03:36.341Z,9.73
2023-02-23T13:06:12.052Z,17.83
2023-02-23T13:09:00.155Z,13.77
2023-02-23T13:11:47.035Z,8.57
2023-02-23T13:14:23.310Z,8.30
2023-02-23T13:16:55.425Z,8.37
2023-02-23T13:19:34.510Z,10.38
2023-02-23T13:22:22.224Z,10.17
2023-02-23T13:24:52.697Z,7.80
2023-02-23T13:27:28.231Z,8.33
2023-02-23T13:29:59.205Z,6.87
2023-02-23T13:32:32.001Z,6.30
2023-02-23T13:35:01.601Z,9.93
2023-02-23T13:37:36.547Z,8.03
2023-02-23T13:40:21.712Z,8.13
2023-02-23T13:43:01.042Z,7.43
2023-02-23T13:45:39.758Z,8.03
2023-02-23T13:48:20.363Z,6.97
2023-02-23T13:50:55.736Z,6.40
2023-02-23T13:53:41.645Z,6.83
2023-02-23T13:56:11.556Z,6.40
2023-02-23T13:58:47.932Z,5.50
2023-02-23T14:01:18.868Z,9.23
2023-02-23T14:03:54.685Z,10.13
2023-02-23T14:06:25.773Z,5.93
2023-02-23T14:09:00.744Z,6.27
2023-02-23T14:11:42.444Z,6.23
2023-02-23T14:14:17.031Z,5.40
2023-02-23T14:17:05.498Z,4.30
2023-02-23T14:19:37.640Z,7.27
2023-02-23T14:22:11.061Z,3.57
2023-02-23T14:24:40.473Z,5.50
2023-02-23T14:27:41.593Z,5.07
2023-02-23T14:30:25.422Z,6.23
2023-02-23T14:32:54.676Z,8.80
2023-02-23T14:35:50.617Z,2.88
2023-02-23T14:38:45.685Z,5.80
2023-02-23T14:41:22.621Z,4.47
2023-02-23T14:43:55.482Z,5.10
2023-02-23T14:46:26.162Z,6.50
2023-02-23T14:49:00.586Z,6.93
2023-02-23T14:51:42.296Z,4.70
2023-02-23T14:54:16.111Z,5.70
2023-02-23T14:56:50.716Z,7.30
2023-02-23T14:59:22.021Z,6.43
2023-02-23T15:01:51.976Z,4.40
2023-02-23T15:04:24.727Z,7.37
2023-02-23T15:06:56.122Z,5.10
2023-02-23T15:09:32.369Z,6.10
2023-02-23T15:12:15.017Z,6.47
2023-02-23T15:14:45.881Z,6.87
2023-02-23T15:17:19.691Z,5.80
2023-02-23T15:19:49.987Z,5.80
2023-02-23T15:22:24.746Z,5.80
2023-02-23T15:24:52.590Z,7.38
2023-02-23T15:27:26.953Z,9.13
2023-02-23T15:29:55.472Z,6.97
2023-02-23T15:32:26.161Z,10.23
2023-02-23T15:34:55.459Z,7.20
2023-02-23T15:37:31.562Z,8.20
2023-02-23T15:40:04.193Z,6.27
2023-02-23T15:42:38.193Z,7.37
2023-02-23T15:45:17.828Z,9.10
2023-02-23T15:47:45.689Z,9.30
2023-02-23T15:50:27.651Z,7.23
2023-02-23T15:53:02.083Z,7.50
2023-02-23T15:55:36.190Z,10.13
2023-02-23T15:58:18.759Z,7.50
2023-02-23T16:00:52.426Z,7.33
2023-02-23T16:03:25.269Z,8.03
2023-02-23T16:06:03.229Z,12.20
2023-02-23T16:08:35.927Z,10.50
2023-02-23T16:11:13.450Z,6.93
2023-02-23T16:13:45.861Z,9.63
2023-02-23T16:16:19.410Z,7.40
2023-02-23T16:18:52.058Z,6.40
2023-02-23T16:21:24.484Z,7.80
2023-02-23T16:23:54.677Z,4.63
2023-02-23T16:26:28.899Z,5.63
2023-02-23T16:29:00.711Z,8.57
2023-02-23T16:31:43.784Z,7.97
2023-02-23T16:34:22.291Z,6.47
2023-02-23T16:36:52.736Z,14.13
2023-02-23T16:39:25.363Z,6.20
2023-02-23T16:41:53.256Z,6.50
2023-02-23T16:44:26.350Z,5.37
2023-02-23T16:47:11.078Z,8.63
2023-02-23T16:49:39.224Z,6.03
2023-02-23T16:52:17.737Z,6.43
2023-02-23T16:54:48.348Z,8.47
2023-02-23T16:57:23.355Z,8.77
2023-02-23T16:59:55.069Z,7.43
2023-02-23T17:02:23.793Z,6.90
2023-02-23T17:04:58.964Z,8.30
2023-02-23T17:07:29.295Z,7.67
2023-02-23T17:09:57.041Z,7.07
2023-02-23T17:12:24.790Z,4.70
2023-02-23T17:14:53.987Z,7.77
2023-02-23T17:17:24.248Z,10.30
2023-02-23T17:19:52.094Z,9.63
2023-02-23T17:22:19.877Z,9.00
2023-02-23T17:24:47.668Z,8.20
2023-02-23T17:27:15.411Z,9.20
2023-02-23T17:29:43.181Z,10.00
2023-02-23T17:32:12.585Z,9.70
2023-02-23T17:34:40.640Z,6.80
2023-02-23T17:37:08.354Z,7.53
2023-02-23T17:39:37.493Z,9.47
2023-02-23T17:42:06.728Z,6.33
2023-02-23T17:44:34.466Z,8.13
2023-02-23T17:47:02.298Z,8.97
2023-02-23T17:49:31.432Z,6.53
2023-02-23T17:51:59.284Z,10.33
2023-02-23T17:54:29.056Z,7.57
2023-02-23T17:56:57.907Z,7.70
2023-02-23T17:59:25.719Z,6.23
2023-02-23T18:01:53.489Z,7.50
2023-02-23T18:04:21.327Z,7.90
2023-02-23T18:06:50.521Z,7.80
2023-02-23T18:09:18.318Z,7.60
2023-02-23T18:11:48.424Z,6.20
2023-02-23T18:14:17.166Z,10.37
2023-02-23T18:16:44.878Z,6.73
2023-02-23T18:19:13.060Z,10.60
2023-02-23T18:21:41.785Z,7.27
2023-02-23T18:24:11.821Z,10.67
2023-02-23T18:26:39.830Z,17.40
2023-02-23T18:29:08.037Z,15.87
2023-02-23T18:31:35.993Z,11.20
2023-02-23T18:34:03.823Z,9.30
2023-02-23T18:36:35.357Z,9.13
2023-02-23T18:39:06.441Z,11.20
2023-02-23T18:41:36.399Z,12.97
2023-02-23T18:44:08.778Z,9.47
2023-02-23T18:46:39.889Z,12.33
2023-02-23T18:49:08.228Z,8.30
2023-02-23T18:51:36.194Z,10.37
2023-02-23T18:54:10.604Z,7.77
2023-02-23T18:56:40.490Z,9.67
2023-02-23T18:59:08.389Z,7.10
2023-02-23T19:01:38.110Z,6.90
2023-02-23T19:04:10.833Z,5.80
2023-02-23T19:06:43.038Z,7.20
2023-02-23T19:09:14.547Z,7.00
2023-02-23T19:11:44.596Z,6.93
2023-02-23T19:14:15.833Z,9.77
2023-02-23T19:16:46.804Z,8.33
2023-02-23T19:19:16.084Z,7.27
2023-02-23T19:21:44.971Z,9.13
2023-02-23T19:24:14.258Z,7.07
2023-02-23T19:26:44.496Z,10.63
2023-02-23T19:29:12.855Z,10.47
2023-02-23T19:31:41.346Z,8.17
2023-02-23T19:34:12.804Z,13.90
2023-02-23T19:36:41.337Z,11.20
2023-02-23T19:39:15.807Z,9.93
2023-02-23T19:41:45.806Z,10.57
2023-02-23T19:44:14.417Z,12.20
2023-02-23T19:46:43.960Z,10.13
2023-02-23T19:49:11.952Z,7.57
2023-02-23T19:51:42.035Z,7.53
2023-02-23T19:54:09.834Z,7.23
2023-02-23T19:56:38.705Z,10.60
2023-02-23T19:59:07.915Z,11.60
2023-02-23T20:01:36.110Z,9.53
2023-02-23T20:04:06.602Z,9.53
2023-02-23T20:06:44.710Z,7.70
2023-02-23T20:09:12.760Z,9.03
2023-02-23T20:11:42.860Z,14.77
2023-02-23T20:14:12.567Z,8.40
2023-02-23T20:16:40.547Z,13.83
2023-02-23T20:19:08.413Z,11.37
2023-02-23T20:21:36.840Z,11.03
2023-02-23T20:24:07.503Z,9.70
2023-02-23T20:26:37.861Z,12.87
2023-02-23T20:29:10.958Z,11.03
2023-02-23T20:31:46.898Z,7.17
2023-02-23T20:34:14.845Z,8.97
2023-02-23T20:36:42.618Z,8.43
2023-02-23T20:39:11.180Z,10.97
2023-02-23T20:41:43.280Z,9.73
2023-02-23T20:44:11.589Z,9.00
2023-02-23T20:46:41.547Z,12.80
2023-02-23T20:49:12.516Z,11.63
2023-02-23T20:51:42.290Z,11.00
2023-02-23T20:54:11.705Z,8.03
2023-02-23T20:56:40.230Z,14.63
2023-02-23T20:59:11.070Z,14.27
2023-02-23T21:01:42.418Z,10.37
2023-02-23T21:04:12.691Z,8.27
2023-02-23T21:06:40.584Z,13.37
2023-02-23T21:09:12.595Z,12.80
2023-02-23T21:11:40.435Z,10.37
2023-02-23T21:14:08.437Z,15.20
2023-02-23T21:16:40.878Z,18.20
2023-02-23T21:19:13.934Z,16.27
2023-02-23T21:21:42.718Z,14.40
2023-02-23T21:24:11.412Z,14.83
2023-02-23T21:26:39.287Z,10.50
2023-02-23T21:29:11.638Z,18.77
2023-02-23T21:31:40.338Z,14.27
2023-02-23T21:34:08.864Z,11.40
2023-02-23T21:36:38.172Z,10.57
2023-02-23T21:39:07.035Z,10.47
2023-02-23T21:41:37.643Z,9.93
2023-02-23T21:44:07.367Z,11.00
2023-02-23T21:46:35.413Z,10.33
2023-02-23T21:49:09.629Z,13.47
2023-02-23T21:51:39.266Z,9.40
2023-02-23T21:54:07.261Z,10.47
2023-02-23T21:56:36.670Z,12.30
2023-02-23T21:59:06.204Z,12.10
2023-02-23T22:01:36.270Z,13.97
2023-02-23T22:04:05.224Z,11.07
2023-02-23T22:06:36.862Z,8.90
2023-02-23T22:09:06.550Z,11.17
2023-02-23T22:11:37.094Z,14.40
2023-02-23T22:14:10.039Z,16.23
2023-02-23T22:16:41.026Z,16.77
2023-02-23T22:19:09.721Z,18.10
2023-02-23T22:21:39.468Z,19.10
2023-02-23T22:24:10.493Z,16.30
2023-02-23T22:26:41.606Z,15.93
2023-02-23T22:29:10.802Z,13.47
2023-02-23T22:31:41.155Z,13.57
2023-02-23T22:34:09.136Z,18.67
2023-02-23T22:36:36.928Z,13.93
2023-02-23T22:39:07.331Z,11.70
2023-02-23T22:41:42.209Z,16.20
2023-02-23T22:44:13.298Z,12.33
2023-02-23T22:46:45.898Z,11.97
2023-02-23T22:49:15.802Z,16.00
2023-02-23T22:51:44.588Z,12.47
2023-02-23T22:54:13.246Z,11.47
2023-02-23T22:56:42.984Z,11.77
2023-02-23T22:59:11.259Z,15.43
2023-02-23T23:01:40.344Z,16.80
2023-02-23T23:04:11.145Z,13.80
2023-02-23T23:06:41.336Z,18.77
2023-02-23T23:09:13.293Z,14.73
2023-02-23T23:11:42.644Z,11.43
2023-02-23T23:14:11.402Z,11.97
2023-02-23T23:16:47.930Z,11.87
2023-02-23T23:19:17.665Z,19.00
2023-02-23T23:21:46.033Z,18.07
2023-02-23T23:24:15.211Z,16.27
2023-02-23T23:26:45.094Z,13.20
2023-02-23T23:29:14.871Z,25.33
2023-02-23T23:31:45.279Z,18.13
2023-02-23T23:34:16.419Z,22.67
2023-02-23T23:36:49.034Z,17.47
2023-02-23T23:39:17.384Z,17.33
2023-02-23T23:41:48.053Z,17.93
2023-02-23T23:44:17.100Z,14.30
2023-02-23T23:46:46.934Z,19.90
2023-02-23T23:49:17.526Z,18.43
2023-02-23T23:51:50.597Z,15.83
2023-02-23T23:54:21.456Z,20.87
2023-02-23T23:56:51.113Z,14.80
2023-02-23T23:59:21.232Z,24.53
